Time;durP1;ratioP1;P1;durP2;ratioP2;P2;SDS_P1;SDS_P2;PMS_P1;PMS_P2;Temp;Humidity;BMP_temperature;BMP_pressure;BME280_temperature;BME280_humidity;BME280_pressure;Samples;Min_cycle;Max_cycle;Signal;HPM_P1;HPM_P2
2022/05/17 00:00:54;;;;;;;;;13.00;13.00;;;;;21.52;61.98;101704.09;4993046;28;50557;-68
2022/05/17 00:03:19;;;;;;;;;12.50;12.50;;;;;21.36;61.87;101686.44;4994422;28;49988;-68
2022/05/17 00:05:46;;;;;;;;;12.50;11.75;;;;;21.51;62.04;101714.78;4994364;28;49555;-74
2022/05/17 00:08:13;;;;;;;;;10.75;10.00;;;;;21.44;62.00;101700.63;4994822;28;49737;-68
2022/05/17 00:10:39;;;;;;;;;11.25;11.25;;;;;21.46;62.30;101704.16;4994390;28;50801;-66
2022/05/17 00:13:05;;;;;;;;;18.25;16.50;;;;;21.35;62.38;101682.88;4976725;28;49806;-67
2022/05/17 00:15:32;;;;;;;;;16.00;15.25;;;;;21.32;62.34;101690.91;4994420;28;49604;-67
2022/05/17 00:17:57;;;;;;;;;12.50;12.00;;;;;21.34;62.73;101693.59;4994395;28;49941;-66
2022/05/17 00:20:24;;;;;;;;;10.50;10.50;;;;;21.32;62.42;101690.03;4993937;28;50917;-65
2022/05/17 00:22:50;;;;;;;;;11.50;10.75;;;;;21.36;62.50;101702.47;4994377;28;49778;-70
2022/05/17 00:25:18;;;;;;;;;12.75;12.75;;;;;21.31;62.76;101691.81;4994070;28;49539;-74
2022/05/17 00:27:44;;;;;;;;;8.50;7.50;;;;;21.32;62.66;101698.03;4994534;28;49636;-70
2022/05/17 00:30:10;;;;;;;;;10.75;10.75;;;;;21.08;62.54;101659.94;4994114;28;51326;-67
2022/05/17 00:32:35;;;;;;;;;12.00;12.00;;;;;21.20;62.61;101687.44;4994106;28;49880;-70
2022/05/17 00:35:01;;;;;;;;;12.00;12.00;;;;;21.13;62.83;101670.56;4993860;28;49762;-72
2022/05/17 00:37:26;;;;;;;;;11.50;11.50;;;;;21.25;62.71;101688.28;4994295;28;49794;-67
2022/05/17 00:39:52;;;;;;;;;10.50;10.50;;;;;21.20;62.80;101690.09;4993720;28;50304;-70
2022/05/17 00:42:18;;;;;;;;;15.50;14.50;;;;;21.21;62.61;101689.19;4994125;28;49860;-71
2022/05/17 00:44:44;;;;;;;;;11.50;11.25;;;;;21.20;62.33;101690.97;4994124;28;49690;-66
2022/05/17 00:47:19;;;;;;;;;12.00;10.75;;;;;21.21;62.50;101689.19;4987740;28;49722;-66
2022/05/17 00:50:19;;;;;;;;;10.00;10.00;;;;;21.10;62.13;101686.63;4993526;28;49828;-73
2022/05/17 00:53:06;;;;;;;;;10.00;9.75;;;;;21.11;61.68;101681.25;4978514;28;49722;-69
2022/05/17 00:55:42;;;;;;;;;7.75;7.50;;;;;21.07;61.02;101674.19;4993913;28;49825;-71
2022/05/17 00:58:16;;;;;;;;;8.00;7.75;;;;;21.14;60.75;101685.72;4993904;28;49760;-69
2022/05/17 01:01:03;;;;;;;;;12.25;10.25;;;;;21.06;60.80;101674.19;4993410;28;50672;-66
2022/05/17 01:03:46;;;;;;;;;8.00;8.00;;;;;21.11;60.76;101678.59;4975860;28;49779;-71
2022/05/17 01:06:13;;;;;;;;;6.75;6.00;;;;;21.04;60.33;101678.69;4975792;28;49770;-70
2022/05/17 01:08:39;;;;;;;;;4.25;4.00;;;;;21.10;60.15;101678.59;4993835;28;49822;-75
2022/05/17 01:11:04;;;;;;;;;6.25;6.00;;;;;21.04;59.82;101663.53;4993293;28;50971;-72
2022/05/17 01:16:13;;;;;;;;;12.00;7.00;;;;;21.01;59.92;101666.22;4989448;28;50617;-70
2022/05/17 01:18:41;;;;;;;;;6.75;6.50;;;;;20.91;59.69;101644.94;4993289;28;49958;-68
2022/05/17 01:21:08;;;;;;;;;8.00;7.75;;;;;21.02;59.81;101676.00;4993144;28;49777;-73
2022/05/17 01:23:34;;;;;;;;;6.00;6.00;;;;;20.93;59.95;101672.50;4993248;28;49920;-73
2022/05/17 01:25:59;;;;;;;;;8.50;5.50;;;;;20.67;59.70;101625.56;4993209;28;49954;-69
2022/05/17 01:28:29;;;;;;;;;7.50;7.25;;;;;20.95;60.04;101676.06;4993644;28;49863;-70
2022/05/17 01:30:56;;;;;;;;;8.25;6.50;;;;;20.95;59.93;101678.75;4992190;28;50732;-70
2022/05/17 01:33:22;;;;;;;;;9.25;7.00;;;;;20.92;59.90;101676.06;4992693;28;49899;-71
2022/05/17 01:35:48;;;;;;;;;7.50;7.50;;;;;20.93;60.07;101681.41;4992986;28;49746;-73
2022/05/17 01:38:14;;;;;;;;;8.25;6.50;;;;;20.73;59.41;101637.97;4993507;28;49920;-71
2022/05/17 01:40:40;;;;;;;;;6.00;6.00;;;;;20.71;59.48;101647.75;4993255;28;49636;-73
2022/05/17 01:43:06;;;;;;;;;7.00;7.00;;;;;20.30;59.55;101577.75;4993140;28;49678;-72
2022/05/17 01:45:32;;;;;;;;;9.25;7.75;;;;;20.85;59.56;101680.59;4986740;28;49861;-69
2022/05/17 01:47:58;;;;;;;;;5.25;4.50;;;;;20.80;59.08;101661.94;4993293;28;49964;-69
2022/05/17 01:50:23;;;;;;;;;7.25;5.50;;;;;20.86;59.10;101679.69;4992623;28;50630;-73
2022/05/17 01:52:49;;;;;;;;;7.00;5.75;;;;;20.72;58.75;101674.44;4993073;28;49730;-71
2022/05/17 01:55:14;;;;;;;;;7.25;5.00;;;;;20.39;58.78;101638.16;4975757;28;49880;-68
2022/05/17 01:57:40;;;;;;;;;8.00;8.00;;;;;20.55;58.62;101676.31;4993323;28;49994;-70
2022/05/17 02:00:10;;;;;;;;;6.00;6.00;;;;;20.79;59.28;101709.97;4992889;28;50674;-73
2022/05/17 02:02:36;;;;;;;;;7.00;7.00;;;;;20.79;59.14;101712.66;4992661;28;49926;-72
2022/05/17 02:05:03;;;;;;;;;7.25;5.00;;;;;20.77;58.85;101719.78;4992614;28;49687;-72
2022/05/17 02:07:28;;;;;;;;;5.25;3.75;;;;;20.43;58.31;101669.28;4993212;28;49771;-65
2022/05/17 02:09:54;;;;;;;;;5.00;5.00;;;;;20.63;58.18;101693.16;4993753;28;50440;-72
2022/05/17 02:12:19;;;;;;;;;5.00;5.00;;;;;20.56;58.44;101687.00;4996220;28;49687;-72
2022/05/17 02:14:45;;;;;;;;;4.50;4.50;;;;;20.68;58.04;101717.16;4978775;28;49982;-72
2022/05/17 02:17:10;;;;;;;;;4.50;4.50;;;;;20.57;57.95;101703.88;4996464;28;49745;-67
2022/05/17 02:19:36;;;;;;;;;8.50;7.00;;;;;20.48;58.25;101683.47;4995485;28;51399;-69
2022/05/17 02:22:02;;;;;;;;;3.00;3.00;;;;;20.46;58.15;101695.94;4996263;28;50004;-69
2022/05/17 02:24:27;;;;;;;;;6.25;3.75;;;;;20.60;58.07;101717.19;4996211;28;49789;-72
2022/05/17 02:26:54;;;;;;;;;5.25;4.25;;;;;20.51;58.29;101704.78;4996283;28;49757;-65
2022/05/17 02:29:19;;;;;;;;;4.00;3.00;;;;;20.45;58.58;101693.25;4995929;28;50610;-69
2022/05/17 02:31:45;;;;;;;;;4.00;4.00;;;;;20.61;58.67;101720.75;4995901;28;49584;-74
2022/05/17 02:34:10;;;;;;;;;6.75;3.00;;;;;20.62;58.23;101707.41;4995824;28;49829;-70
2022/05/17 02:36:35;;;;;;;;;6.50;5.50;;;;;20.64;58.15;101704.72;4996243;28;49754;-65
2022/05/17 02:39:01;;;;;;;;;5.50;4.25;;;;;20.58;58.49;101703.00;4995655;28;52694;-70
2022/05/17 02:41:26;;;;;;;;;4.00;4.00;;;;;20.64;58.12;101707.38;4996000;28;49744;-65
2022/05/17 02:43:53;;;;;;;;;7.75;5.50;;;;;20.63;57.79;101705.63;4995845;28;49765;-68
2022/05/17 02:46:18;;;;;;;;;3.25;3.25;;;;;20.51;57.48;101683.47;4996054;28;49842;-66
2022/05/17 02:48:44;;;;;;;;;4.00;4.00;;;;;20.56;57.41;101700.34;4977976;28;50593;-66
2022/05/17 02:51:18;;;;;;;;;5.00;5.00;;;;;20.55;57.59;101706.53;4995488;28;49611;-64
2022/05/17 02:53:43;;;;;;;;;6.00;6.00;;;;;20.29;57.84;101666.66;4995884;28;49643;-64
2022/05/17 02:56:09;;;;;;;;;6.00;5.75;;;;;20.49;57.98;101697.69;4995720;28;49766;-65
2022/05/17 02:58:34;;;;;;;;;5.50;4.00;;;;;20.38;58.12;101683.50;4995580;28;49749;-66
2022/05/17 03:01:00;;;;;;;;;6.00;6.00;;;;;20.37;58.17;101697.75;4995594;28;49690;-68
2022/05/17 03:03:26;;;;;;;;;3.50;3.50;;;;;20.36;58.29;101694.16;4977977;28;49844;-67
2022/05/17 03:05:51;;;;;;;;;7.75;5.75;;;;;20.22;58.43;101680.00;4995495;28;49822;-64
2022/05/17 03:08:17;;;;;;;;;3.00;3.00;;;;;20.30;58.60;101694.19;4995427;28;50389;-65
2022/05/17 03:10:42;;;;;;;;;5.00;5.00;;;;;20.13;58.65;101664.94;4995415;28;49829;-67
2022/05/17 03:13:13;;;;;;;;;3.50;3.50;;;;;19.81;58.87;101617.09;4995548;28;49861;-71
2022/05/17 03:15:39;;;;;;;;;9.00;5.00;;;;;20.19;58.94;101691.59;4995488;28;49683;-72
2022/05/17 03:18:05;;;;;;;;;3.50;3.50;;;;;20.06;58.84;101667.63;4994970;28;49989;-67
2022/05/17 03:20:31;;;;;;;;;5.25;5.00;;;;;20.06;59.04;101670.28;4994610;28;49797;-69
2022/05/17 03:22:56;;;;;;;;;4.25;4.25;;;;;19.96;59.25;101662.34;4994357;28;49527;-66
2022/05/17 03:25:23;;;;;;;;;4.75;4.75;;;;;19.77;59.29;101643.75;4995426;28;49767;-72
2022/05/17 03:27:49;;;;;;;;;5.00;5.00;;;;;20.04;59.44;101680.09;4995080;28;49668;-73
2022/05/17 03:30:14;;;;;;;;;7.00;5.75;;;;;20.02;59.45;101691.63;4995035;28;49662;-67
2022/05/17 03:32:39;;;;;;;;;7.25;5.25;;;;;19.70;59.45;101630.47;4995055;28;49876;-66
2022/05/17 03:35:06;;;;;;;;;4.00;4.00;;;;;20.10;59.90;101696.94;4995001;28;49720;-66
2022/05/17 03:37:31;;;;;;;;;8.00;6.25;;;;;19.83;60.26;101649.94;4994870;28;51545;-67
2022/05/17 03:39:56;;;;;;;;;6.00;6.00;;;;;19.98;60.67;101686.34;4994967;28;49665;-72
2022/05/17 03:42:22;;;;;;;;;6.00;6.00;;;;;20.01;60.50;101694.31;4995166;28;49548;-69
2022/05/17 03:44:47;;;;;;;;;6.50;6.50;;;;;19.89;60.42;101681.03;4995113;28;49714;-70
2022/05/17 03:47:12;;;;;;;;;6.50;5.50;;;;;19.92;60.54;101697.91;4994459;28;49855;-64
2022/05/17 03:49:41;;;;;;;;;4.00;4.00;;;;;19.90;60.31;101696.13;4994737;28;49773;-70
2022/05/17 03:52:08;;;;;;;;;4.75;4.75;;;;;19.89;60.66;101697.03;4994927;28;49788;-69
2022/05/17 03:54:34;;;;;;;;;8.00;5.75;;;;;19.81;60.60;101693.50;4994814;28;49626;-65
2022/05/17 03:56:59;;;;;;;;;5.50;4.50;;;;;19.37;60.88;101618.06;4994488;28;50711;-65
2022/05/17 03:59:24;;;;;;;;;5.75;5.25;;;;;19.65;61.34;101665.97;4994450;28;49616;-65
2022/05/17 04:01:50;;;;;;;;;6.00;5.50;;;;;19.86;61.12;101697.00;4994508;28;49860;-65
2022/05/17 04:04:16;;;;;;;;;9.00;6.50;;;;;19.64;61.43;101658.88;4994655;28;49753;-64
2022/05/17 04:06:42;;;;;;;;;6.25;5.75;;;;;19.84;61.47;101704.13;4994331;28;50411;-66
2022/05/17 04:09:08;;;;;;;;;7.00;7.00;;;;;19.66;61.46;101670.41;4994533;28;49865;-72
2022/05/17 04:11:34;;;;;;;;;7.50;7.50;;;;;19.77;61.70;101687.25;4994480;28;49558;-64
2022/05/17 04:13:59;;;;;;;;;5.00;5.00;;;;;19.80;61.57;101697.03;4994793;28;49774;-68
2022/05/17 04:16:25;;;;;;;;;7.00;7.00;;;;;19.16;61.93;101600.34;4994443;28;49737;-65
2022/05/17 04:18:50;;;;;;;;;6.75;5.50;;;;;19.57;62.25;101668.66;4994146;28;49599;-67
2022/05/17 04:21:16;;;;;;;;;6.75;6.75;;;;;19.72;62.09;101697.94;4994274;28;49930;-70
2022/05/17 04:23:42;;;;;;;;;7.00;6.00;;;;;19.68;62.83;101704.16;4994629;28;49756;-69
2022/05/17 04:26:07;;;;;;;;;3.50;3.50;;;;;19.57;62.90;101687.31;4976301;28;50555;-72
2022/05/17 04:28:33;;;;;;;;;4.25;4.25;;;;;19.65;63.09;101703.28;4994095;28;49797;-65
2022/05/17 04:30:58;;;;;;;;;6.00;6.00;;;;;19.63;62.97;101710.38;4994225;28;49901;-67
2022/05/17 04:33:24;;;;;;;;;6.25;5.00;;;;;19.61;63.58;101717.50;4993989;28;49868;-70
2022/05/17 04:35:50;;;;;;;;;7.00;6.75;;;;;19.57;63.37;101711.28;4993698;28;50240;-69
2022/05/17 04:38:16;;;;;;;;;10.75;6.25;;;;;19.58;63.55;101718.38;4994053;28;50019;-65
2022/05/17 04:40:42;;;;;;;;;8.75;8.75;;;;;19.59;63.95;101717.50;4994104;28;49790;-73
2022/05/17 04:43:08;;;;;;;;;6.75;6.75;;;;;19.60;64.05;101726.38;4994214;28;49790;-66
2022/05/17 04:45:34;;;;;;;;;8.25;7.25;;;;;19.35;64.14;101689.06;4993846;28;50492;-70
2022/05/17 04:47:59;;;;;;;;;8.25;6.50;;;;;19.61;64.40;101726.38;4993898;28;49863;-70
2022/05/17 04:50:24;;;;;;;;;8.25;8.25;;;;;19.53;64.47;101711.25;4993654;28;49622;-65
2022/05/17 04:52:50;;;;;;;;;7.25;7.00;;;;;19.64;64.81;101730.81;4994044;28;49620;-65
2022/05/17 04:55:18;;;;;;;;;7.00;7.00;;;;;19.64;65.01;101729.03;4993708;28;51386;-69
2022/05/17 04:57:43;;;;;;;;;11.25;9.00;;;;;19.48;65.58;101686.38;4993654;28;49589;-75
2022/05/17 05:00:15;;;;;;;;;10.25;9.00;;;;;19.51;66.76;101724.59;4993703;28;49792;-67
2022/05/17 05:02:41;;;;;;;;;13.25;10.50;;;;;19.26;67.90;101704.16;4993719;28;49823;-70
2022/05/17 05:05:07;;;;;;;;;16.00;11.50;;;;;19.43;67.68;101727.25;4993494;28;49770;-72
2022/05/17 05:07:32;;;;;;;;;13.75;12.75;;;;;19.16;67.87;101674.00;4993572;28;49629;-68
2022/05/17 05:09:57;;;;;;;;;13.00;8.75;;;;;19.55;67.71;101737.00;4993717;28;49712;-68
2022/05/17 05:12:23;;;;;;;;;12.50;10.75;;;;;19.30;67.60;101680.22;4993721;28;49989;-67
2022/05/17 05:14:48;;;;;;;;;12.75;11.50;;;;;19.69;68.37;101750.34;4993345;28;50391;-67
2022/05/17 05:17:14;;;;;;;;;15.50;12.00;;;;;19.72;68.35;101743.22;4993471;28;49658;-68
2022/05/17 05:19:39;;;;;;;;;13.75;11.00;;;;;19.78;68.32;101742.31;4992527;28;49826;-71
2022/05/17 05:22:05;;;;;;;;;11.75;11.50;;;;;19.70;68.80;101736.13;4993321;28;49701;-69
2022/05/17 05:24:31;;;;;;;;;16.25;16.00;;;;;19.87;68.90;101757.41;4993125;28;50751;-69
2022/05/17 05:26:57;;;;;;;;;16.00;13.75;;;;;19.63;69.66;101723.72;4992885;28;49587;-68
2022/05/17 05:29:22;;;;;;;;;17.75;16.25;;;;;19.89;69.82;101766.31;4993032;28;49551;-68
2022/05/17 05:31:47;;;;;;;;;15.25;15.25;;;;;19.66;70.13;101735.25;4993708;28;49818;-69
2022/05/17 05:34:13;;;;;;;;;19.75;19.25;;;;;19.84;70.19;101765.41;4992869;28;50400;-69
2022/05/17 05:36:38;;;;;;;;;22.00;20.00;;;;;19.88;70.11;101761.84;4993324;28;49766;-76
2022/05/17 05:39:03;;;;;;;;;20.00;17.25;;;;;19.83;70.02;101763.63;4992864;28;49788;-71
2022/05/17 05:41:29;;;;;;;;;17.25;13.25;;;;;19.86;69.88;101771.63;4986805;28;49882;-69
2022/05/17 05:43:54;;;;;;;;;16.75;15.50;;;;;19.83;69.91;101761.88;4996908;28;50654;-72
2022/05/17 05:46:20;;;;;;;;;24.00;17.75;;;;;20.00;69.51;101775.16;4996565;28;49795;-67
2022/05/17 05:48:46;;;;;;;;;16.75;15.75;;;;;19.74;69.60;101724.56;4998604;28;49847;-68
2022/05/17 05:51:11;;;;;;;;;19.25;18.00;;;;;20.04;68.93;101781.38;4996305;28;49606;-67
2022/05/17 05:53:37;;;;;;;;;20.50;17.50;;;;;20.09;68.91;101779.59;4997411;28;50968;-68
2022/05/17 05:56:02;;;;;;;;;16.25;15.25;;;;;19.71;69.05;101711.28;5000847;28;49899;-68
2022/05/17 05:58:29;;;;;;;;;13.00;13.00;;;;;20.07;68.54;101746.69;5004358;28;49563;-67
2022/05/17 06:00:54;;;;;;;;;22.25;19.00;;;;;20.25;68.31;101776.88;5003286;28;50080;-68
2022/05/17 06:03:20;;;;;;;;;22.25;17.75;;;;;20.20;68.48;101772.47;4994333;28;50610;-68
2022/05/17 06:05:45;;;;;;;;;18.75;18.75;;;;;20.08;68.37;101753.84;4993978;28;49877;-67
2022/05/17 06:08:13;;;;;;;;;19.50;19.00;;;;;20.07;68.24;101746.69;4992876;28;50540;-67
2022/05/17 06:10:38;;;;;;;;;19.75;16.75;;;;;19.96;67.91;101731.63;5000175;28;49816;-67
2022/05/17 06:13:03;;;;;;;;;24.75;22.25;;;;;20.17;67.86;101762.69;4996129;28;49997;-69
2022/05/17 06:15:29;;;;;;;;;18.25;16.75;;;;;20.32;67.63;101783.06;4999873;28;49875;-69
2022/05/17 06:17:54;;;;;;;;;18.00;16.75;;;;;20.29;67.79;101756.44;4996454;28;49698;-69
2022/05/17 06:20:20;;;;;;;;;16.00;16.00;;;;;20.33;66.76;101758.19;5001159;28;49776;-69
2022/05/17 06:22:45;;;;;;;;;19.25;17.50;;;;;20.44;67.12;101779.50;4995633;28;49962;-68
2022/05/17 06:25:11;;;;;;;;;18.75;18.50;;;;;20.48;66.67;101774.16;4995847;28;49612;-68
2022/05/17 06:27:37;;;;;;;;;19.00;18.50;;;;;20.67;66.59;101791.00;5003277;28;49824;-69
2022/05/17 06:30:04;;;;;;;;;15.00;12.50;;;;;20.74;66.41;101775.81;4997500;28;50053;-77
2022/05/17 06:32:29;;;;;;;;;25.00;19.75;;;;;20.75;66.01;101772.25;4991046;28;50855;-68
2022/05/17 06:34:55;;;;;;;;;11.50;11.50;;;;;20.61;64.72;101736.75;4999106;28;49768;-68
2022/05/17 06:37:20;;;;;;;;;10.75;9.00;;;;;20.93;63.47;101764.13;4995838;28;49664;-68
2022/05/17 06:39:45;;;;;;;;;11.00;8.75;;;;;20.93;62.13;101748.13;4994908;28;49927;-68
2022/05/17 06:42:11;;;;;;;;;7.00;6.00;;;;;21.12;61.48;101757.78;4999777;28;49519;-69
2022/05/17 06:44:37;;;;;;;;;10.25;10.25;;;;;21.31;60.44;101773.72;5003368;28;49896;-69
2022/05/17 06:47:04;;;;;;;;;9.00;9.00;;;;;21.23;59.05;101764.84;4995343;28;49817;-71
2022/05/17 06:49:29;;;;;;;;;5.00;5.00;;;;;21.29;59.90;101770.19;4997372;28;49705;-72
2022/05/17 06:51:57;;;;;;;;;10.00;10.00;;;;;21.21;60.04;101766.63;4995426;28;49561;-70
2022/05/17 06:54:22;;;;;;;;;10.50;9.25;;;;;21.27;59.75;101775.53;4995507;28;49721;-69
2022/05/17 06:56:48;;;;;;;;;9.25;5.00;;;;;21.33;59.10;101771.94;4995058;28;49797;-71
2022/05/17 06:59:13;;;;;;;;;8.75;8.75;;;;;21.36;59.46;101771.91;4995643;28;49749;-70
2022/05/17 07:01:39;;;;;;;;;8.75;8.00;;;;;21.30;59.51;101740.78;4995308;28;50496;-69
2022/05/17 07:04:04;;;;;;;;;7.00;7.00;;;;;21.20;58.92;101739.03;4995449;28;49867;-72
2022/05/17 07:06:30;;;;;;;;;10.50;9.50;;;;;21.47;59.23;101791.41;4994719;28;49841;-70
2022/05/17 07:08:55;;;;;;;;;7.00;7.00;;;;;21.63;59.33;101789.50;4994652;28;49916;-71
2022/05/17 07:14:04;;;;;;;;;8.75;8.25;;;;;21.70;58.36;101754.66;4994559;28;49681;-73
2022/05/17 07:16:30;;;;;;;;;11.50;11.50;;;;;21.76;57.33;101782.25;4992794;28;49940;-72
2022/05/17 07:18:56;;;;;;;;;8.00;7.50;;;;;21.79;58.29;101783.09;4995474;28;49639;-70
2022/05/17 07:21:21;;;;;;;;;11.00;9.50;;;;;21.88;57.07;101771.44;4994641;28;50385;-72
2022/05/17 07:23:47;;;;;;;;;10.25;7.50;;;;;21.90;57.95;101765.16;4995170;28;49877;-73
2022/05/17 07:26:13;;;;;;;;;8.00;8.00;;;;;21.88;57.61;101737.56;4995231;28;49742;-69
2022/05/17 07:28:47;;;;;;;;;8.50;7.50;;;;;22.15;56.68;101765.84;4995178;28;49604;-72
2022/05/17 07:31:13;;;;;;;;;8.50;7.25;;;;;22.04;55.69;101746.34;4994927;28;50473;-73
2022/05/17 07:33:39;;;;;;;;;8.75;8.00;;;;;22.10;55.52;101778.41;4994973;28;49670;-74
2022/05/17 07:36:07;;;;;;;;;6.00;6.00;;;;;21.83;55.43;101720.72;4995010;28;49835;-71
2022/05/17 07:38:33;;;;;;;;;6.00;6.00;;;;;21.91;54.62;101732.22;4994925;28;49961;-71
2022/05/17 07:40:59;;;;;;;;;6.00;4.25;;;;;22.15;54.20;101755.16;4995023;28;49867;-72
2022/05/17 07:43:24;;;;;;;;;8.25;7.25;;;;;22.33;54.37;101775.44;4994944;28;49773;-69
2022/05/17 07:45:50;;;;;;;;;5.25;4.25;;;;;22.40;54.93;101761.09;4995119;28;49734;-71
2022/05/17 07:48:22;;;;;;;;;7.25;7.00;;;;;22.49;54.27;101761.00;4995370;28;49752;-70
2022/05/17 07:50:49;;;;;;;;;7.25;6.25;;;;;22.24;54.07;101722.06;4994428;28;49740;-77
2022/05/17 07:53:16;;;;;;;;;6.50;5.50;;;;;22.61;54.65;101769.75;4994624;28;49689;-74
2022/05/17 07:55:44;;;;;;;;;8.25;7.00;;;;;22.28;53.38;101710.41;4994727;28;49944;-73
2022/05/17 07:58:10;;;;;;;;;4.00;4.00;;;;;22.59;48.00;101767.13;4977046;28;49904;-74
2022/05/17 08:00:36;;;;;;;;;4.75;4.50;;;;;22.45;48.58;101720.91;4994177;28;50342;-76
2022/05/17 08:03:04;;;;;;;;;3.50;3.50;;;;;22.86;47.58;101763.19;4974952;28;49900;-75
2022/05/17 08:05:30;;;;;;;;;14.50;8.00;;;;;22.95;49.31;101770.22;4994252;28;49952;-66
2022/05/17 08:07:56;;;;;;;;;4.25;4.25;;;;;23.01;49.57;101752.28;4993702;28;49712;-65
2022/05/17 08:10:22;;;;;;;;;7.00;5.25;;;;;23.23;49.77;101776.03;4985448;28;51161;-64
2022/05/17 08:12:47;;;;;;;;;5.00;3.75;;;;;23.19;50.03;101747.53;4994205;28;49856;-64
2022/05/17 08:15:13;;;;;;;;;5.75;5.75;;;;;23.38;49.70;101774.00;4994255;28;49807;-64
2022/05/17 08:17:39;;;;;;;;;5.00;3.75;;;;;23.47;49.54;101777.47;4994422;28;49941;-67
2022/05/17 08:20:12;;;;;;;;;3.75;3.75;;;;;23.47;49.74;101762.28;4994110;28;51119;-64
2022/05/17 08:22:43;;;;;;;;;5.00;3.25;;;;;23.58;49.57;101775.47;4993847;28;49726;-64
2022/05/17 08:27:57;;;;;;;;;3.75;3.75;;;;;23.68;49.60;101767.28;4994138;28;49944;-64
2022/05/17 08:30:25;;;;;;;;;2.50;2.50;;;;;23.73;49.54;101767.19;4993903;28;49579;-64
2022/05/17 08:33:16;;;;;;;;;3.75;3.75;;;;;23.73;49.63;101759.16;4994175;28;49757;-64
2022/05/17 08:35:46;;;;;;;;;1.75;1.75;;;;;23.82;49.36;101774.19;4994067;28;49729;-64
2022/05/17 08:38:14;;;;;;;;;6.75;5.00;;;;;23.86;49.32;101770.56;4993972;28;49816;-65
2022/05/17 08:41:01;;;;;;;;;2.75;2.75;;;;;23.88;49.15;101771.41;4986667;28;50353;-64
2022/05/17 08:43:45;;;;;;;;;6.00;5.00;;;;;23.92;48.84;101770.41;4995502;28;49671;-64
2022/05/17 08:46:17;;;;;;;;;3.75;2.25;;;;;23.86;49.36;101754.47;4993543;28;49741;-64
2022/05/17 08:49:11;;;;;;;;;4.50;4.50;;;;;23.91;49.23;101748.09;4994125;28;49787;-64
2022/05/17 08:51:43;;;;;;;;;4.00;4.00;;;;;23.96;49.11;101750.69;4978655;28;49853;-64
2022/05/17 08:54:13;;;;;;;;;1.00;1.00;;;;;24.05;48.96;101758.56;4991785;28;49627;-66
2022/05/17 08:56:45;;;;;;;;;3.75;2.75;;;;;24.07;48.81;101756.75;4995265;28;49788;-66
2022/05/17 08:59:17;;;;;;;;;3.00;3.00;;;;;24.10;48.56;101762.03;4991189;28;49801;-66
2022/05/17 09:02:07;;;;;;;;;3.25;3.25;;;;;23.97;48.38;101729.22;4992312;28;50929;-67
2022/05/17 09:05:04;;;;;;;;;4.00;4.00;;;;;24.14;48.07;101753.03;4984539;28;49888;-67
2022/05/17 09:07:43;;;;;;;;;44.00;36.75;;;;;24.15;47.82;101754.78;4990822;28;50067;-66
2022/05/17 09:10:24;;;;;;;;;56.50;45.25;;;;;24.18;47.80;101760.09;4994388;28;49944;-64
2022/05/17 09:12:57;;;;;;;;;48.25;40.50;;;;;24.02;47.73;101729.09;4992623;28;49654;-68
2022/05/17 09:15:22;;;;;;;;;48.75;40.00;;;;;23.98;47.50;101716.69;4992649;28;49840;-73
2022/05/17 09:17:48;;;;;;;;;107.00;101.67;;;;;23.84;47.66;101694.63;4975372;28;49694;-72
2022/05/17 09:20:18;;;;;;;;;77.00;68.00;;;;;24.12;47.51;101733.38;4993617;28;49923;-72
2022/05/17 09:22:44;;;;;;;;;70.00;56.50;;;;;24.05;47.21;101706.72;4992568;28;49935;-72
2022/05/17 09:25:20;;;;;;;;;76.75;62.25;;;;;23.98;47.10;101704.16;4993472;28;50043;-72
2022/05/17 09:28:02;;;;;;;;;98.00;94.67;;;;;24.27;46.58;101734.88;4991864;28;49797;-72
2022/05/17 09:30:35;;;;;;;;;128.75;119.50;;;;;24.30;45.82;101740.16;4975560;28;49825;-71
2022/05/17 09:33:09;;;;;;;;;82.67;77.67;;;;;24.31;45.55;101741.06;4992732;28;51439;-72
2022/05/17 09:35:53;;;;;;;;;106.67;99.67;;;;;24.24;45.34;101718.84;4989823;28;50114;-67
2022/05/17 09:38:19;;;;;;;;;88.33;81.00;;;;;24.34;44.95;101733.00;4992561;28;49905;-68
2022/05/17 09:40:48;;;;;;;;;76.33;63.67;;;;;24.35;44.89;101738.31;4992233;28;49814;-68
2022/05/17 09:43:16;;;;;;;;;64.25;51.50;;;;;23.90;44.22;101665.88;4992638;28;50692;-72
2022/05/17 09:45:50;;;;;;;;;56.50;46.50;;;;;24.40;44.30;101733.72;4993627;28;51012;-66
2022/05/17 09:54:48;;;;;;;;;50.50;41.50;;;;;24.39;44.56;101715.84;4988379;28;50276;-64
2022/05/17 09:57:22;;;;;;;;;49.50;41.50;;;;;24.49;44.57;101733.53;4992598;28;49737;-64
2022/05/17 09:59:49;;;;;;;;;39.00;34.75;;;;;24.40;44.54;101714.94;4991725;28;49830;-66
2022/05/17 10:02:34;;;;;;;;;30.50;29.50;;;;;24.51;44.92;101728.13;4996076;28;49697;-74
2022/05/17 10:05:20;;;;;;;;;81.67;74.33;;;;;24.47;44.99;101713.03;4991661;28;49677;-68
2022/05/17 10:08:04;;;;;;;;;104.75;98.75;;;;;24.23;45.16;101672.34;4997179;28;49749;-70
2022/05/17 10:10:32;;;;;;;;;141.75;135.75;;;;;24.57;45.28;101722.63;4988012;28;49915;-67
2022/05/17 10:13:13;;;;;;;;;136.00;131.75;;;;;24.58;45.23;101716.34;4992161;28;49861;-62
2022/05/17 10:15:41;;;;;;;;;117.50;111.25;;;;;24.55;45.41;101711.06;4989353;28;50673;-64
2022/05/17 10:18:44;;;;;;;;;92.00;85.67;;;;;24.13;45.13;101633.22;4992342;28;49684;-66
2022/05/17 10:21:19;;;;;;;;;72.75;60.25;;;;;24.58;44.60;101707.41;4987652;28;49978;-67
2022/05/17 10:24:07;;;;;;;;;67.50;54.25;;;;;24.29;44.20;101663.28;4992398;28;50047;-66
2022/05/17 10:26:39;;;;;;;;;56.25;46.50;;;;;24.56;43.46;101702.09;4953165;28;50107;-69
2022/05/17 10:29:25;;;;;;;;;57.25;47.50;;;;;24.54;43.09;101701.25;4991981;28;49793;-66
2022/05/17 10:32:01;;;;;;;;;49.25;41.50;;;;;24.53;42.69;101683.38;4995030;28;49778;-68
2022/05/17 10:34:39;;;;;;;;;41.00;33.25;;;;;24.54;42.91;101683.34;4995652;28;49685;-68
2022/05/17 10:37:13;;;;;;;;;35.25;32.50;;;;;24.43;42.78;101660.34;4991757;28;49900;-69
2022/05/17 10:39:45;;;;;;;;;28.00;27.25;;;;;24.58;42.37;101677.88;4993318;28;49814;-67
2022/05/17 10:42:11;;;;;;;;;34.50;31.00;;;;;24.50;42.37;101659.25;4995433;28;49915;-68
2022/05/17 10:44:41;;;;;;;;;24.50;24.50;;;;;24.63;42.37;101676.00;4996127;28;49777;-68
2022/05/17 10:47:46;;;;;;;;;20.75;20.75;;;;;24.63;42.35;101676.00;4995392;28;50584;-62
2022/05/17 10:50:34;;;;;;;;;23.50;22.50;;;;;24.63;42.11;101670.63;4969155;28;49754;-64
2022/05/17 10:53:38;;;;;;;;;25.50;23.00;;;;;24.51;42.08;101652.97;4994958;28;49674;-63
2022/05/17 10:56:22;;;;;;;;;15.50;15.25;;;;;24.53;41.80;101656.53;4964774;28;49705;-63
2022/05/17 10:59:12;;;;;;;;;12.00;12.00;;;;;24.61;41.80;101672.44;4995653;28;50460;-63
2022/05/17 11:01:43;;;;;;;;;11.75;11.75;;;;;24.61;41.24;101675.13;4992113;28;49726;-63
2022/05/17 11:04:18;;;;;;;;;10.50;9.50;;;;;24.60;40.98;101668.00;4995230;28;49873;-63
2022/05/17 11:07:01;;;;;;;;;7.00;7.00;;;;;24.55;41.24;101657.38;4995358;28;49944;-64
2022/05/17 11:09:44;;;;;;;;;9.00;9.00;;;;;24.61;40.63;101653.63;4977856;28;51040;-63
2022/05/17 11:12:14;;;;;;;;;7.00;7.00;;;;;24.59;40.54;101645.63;4995305;28;49507;-63
2022/05/17 11:14:59;;;;;;;;;6.00;5.75;;;;;24.55;40.55;101646.63;4995529;28;49881;-63
2022/05/17 11:17:44;;;;;;;;;4.50;4.50;;;;;24.51;40.58;101639.56;4995599;28;49761;-63
2022/05/17 11:20:26;;;;;;;;;5.50;5.50;;;;;24.61;40.25;101637.53;4994979;28;49678;-63
2022/05/17 11:23:22;;;;;;;;;7.75;6.75;;;;;24.61;40.25;101635.75;4994258;28;49872;-63
2022/05/17 11:25:53;;;;;;;;;5.00;4.75;;;;;24.62;40.35;101631.28;4994802;28;49825;-63
2022/05/17 11:28:45;;;;;;;;;6.25;5.75;;;;;24.61;40.39;101635.75;4995486;28;49660;-64
2022/05/17 11:31:18;;;;;;;;;4.50;4.25;;;;;24.62;41.03;101642.91;4994641;28;50454;-63
2022/05/17 11:33:44;;;;;;;;;5.00;5.00;;;;;24.47;41.11;101606.53;4995138;28;49821;-63
2022/05/17 11:36:31;;;;;;;;;4.50;4.50;;;;;24.60;40.76;101623.22;4994467;28;49935;-63
2022/05/17 11:38:57;;;;;;;;;4.00;4.00;;;;;24.58;40.77;101621.50;4993729;28;49879;-63
2022/05/17 11:41:34;;;;;;;;;5.75;4.75;;;;;24.63;40.86;101625.88;4992243;28;50517;-62
2022/05/17 11:44:13;;;;;;;;;4.50;4.00;;;;;24.65;40.50;101620.44;4991653;28;49985;-62